createdAt,value
2022-08-11T00:01:25.489Z,2.70
2022-08-11T00:03:56.527Z,2.00
2022-08-11T00:06:28.597Z,3.00
2022-08-11T00:08:58.181Z,3.20
2022-08-11T00:11:34.711Z,3.40
2022-08-11T00:14:04.208Z,3.60
2022-08-11T00:16:34.084Z,3.20
2022-08-11T00:19:03.294Z,3.10
2022-08-11T00:22:04.358Z,3.00
2022-08-11T00:24:34.581Z,3.20
2022-08-11T00:27:32.733Z,2.90
2022-08-11T00:30:01.626Z,3.10
2022-08-11T00:32:31.146Z,2.60
2022-08-11T00:35:51.816Z,2.80
2022-08-11T00:37:54.409Z,2.70
2022-08-11T00:40:30.186Z,3.30
2022-08-11T00:43:19.290Z,2.80
2022-08-11T00:46:10.398Z,2.70
2022-08-11T00:48:47.400Z,3.20
2022-08-11T00:51:25.518Z,3.20
2022-08-11T00:54:08.417Z,2.90
2022-08-11T00:57:37.655Z,3.00
2022-08-11T01:00:16.685Z,2.60
2022-08-11T01:03:12.450Z,3.30
2022-08-11T01:06:00.055Z,2.90
2022-08-11T01:08:58.126Z,3.20
2022-08-11T01:12:06.851Z,2.90
2022-08-11T01:15:14.532Z,2.90
2022-08-11T01:18:34.816Z,3.00
2022-08-11T01:21:41.327Z,3.50
2022-08-11T01:24:51.453Z,3.10
2022-08-11T01:28:03.017Z,2.90
2022-08-11T01:31:07.567Z,3.40
2022-08-11T01:34:04.476Z,3.50
2022-08-11T01:37:16.011Z,3.40
2022-08-11T01:40:18.890Z,3.30
2022-08-11T01:43:36.761Z,3.20
2022-08-11T01:46:15.963Z,3.40
2022-08-11T01:50:08.401Z,3.30
2022-08-11T01:52:06.986Z,2.80
2022-08-11T01:54:44.243Z,3.00
2022-08-11T01:57:28.645Z,3.40
2022-08-11T02:00:09.535Z,2.80
2022-08-11T02:02:53.421Z,3.20
2022-08-11T02:05:36.569Z,3.20
2022-08-11T02:08:20.420Z,3.30
2022-08-11T02:11:31.033Z,3.40
2022-08-11T02:14:13.191Z,3.10
2022-08-11T02:16:53.112Z,3.00
2022-08-11T02:19:51.556Z,3.40
2022-08-11T02:22:48.382Z,3.00
2022-08-11T02:25:37.836Z,3.20
2022-08-11T02:28:12.662Z,3.30
2022-08-11T02:32:15.542Z,3.20
2022-08-11T02:34:15.214Z,3.60
2022-08-11T02:36:54.884Z,3.50
2022-08-11T02:39:29.810Z,3.20
2022-08-11T02:42:42.567Z,2.90
2022-08-11T02:45:34.387Z,3.40
2022-08-11T02:48:50.940Z,4.10
2022-08-11T02:51:30.100Z,3.70
2022-08-11T02:54:08.467Z,4.00
2022-08-11T02:56:45.039Z,3.90
2022-08-11T02:59:43.226Z,4.30
2022-08-11T03:02:22.889Z,4.30
2022-08-11T03:05:02.817Z,4.30
2022-08-11T03:07:40.340Z,4.00
2022-08-11T03:10:20.436Z,4.70
2022-08-11T03:13:15.598Z,3.80
2022-08-11T03:16:10.234Z,4.20
2022-08-11T03:18:45.409Z,4.00
2022-08-11T03:21:20.768Z,3.90
2022-08-11T03:23:58.462Z,4.10
2022-08-11T03:26:32.314Z,3.50
2022-08-11T03:29:07.880Z,3.80
2022-08-11T03:31:44.651Z,3.40
2022-08-11T03:34:19.739Z,3.80
2022-08-11T03:37:43.742Z,4.10
2022-08-11T03:40:49.555Z,4.10
2022-08-11T03:43:45.715Z,3.60
2022-08-11T03:46:44.222Z,3.90
2022-08-11T03:49:29.631Z,4.60
2022-08-11T03:52:08.304Z,3.90
2022-08-11T03:54:47.707Z,4.00
2022-08-11T03:58:03.382Z,3.50
2022-08-11T04:00:57.490Z,3.40
2022-08-11T04:04:08.053Z,3.40
2022-08-11T04:07:23.200Z,3.10
2022-08-11T04:10:19.093Z,3.80
2022-08-11T04:12:59.913Z,3.60
2022-08-11T04:16:11.908Z,4.00
2022-08-11T04:19:42.535Z,3.50
2022-08-11T04:22:43.949Z,3.40
2022-08-11T04:25:59.956Z,3.50
2022-08-11T04:28:55.286Z,4.10
2022-08-11T04:31:56.246Z,3.60
2022-08-11T04:34:58.761Z,3.70
2022-08-11T04:43:31.816Z,3.70
2022-08-11T04:46:20.217Z,3.80
2022-08-11T04:49:37.119Z,4.10
2022-08-11T04:52:51.796Z,3.60
2022-08-11T04:55:59.914Z,4.00
2022-08-11T04:59:07.205Z,4.50
2022-08-11T05:01:52.256Z,4.20
2022-08-11T05:05:12.779Z,4.20
2022-08-11T05:08:13.080Z,4.70
2022-08-11T05:11:07.778Z,4.50
2022-08-11T05:14:05.121Z,4.80
2022-08-11T05:17:05.915Z,5.00
2022-08-11T05:19:53.275Z,5.40
2022-08-11T05:22:47.118Z,5.00
2022-08-11T05:26:45.329Z,4.90
2022-08-11T05:28:51.323Z,4.90
2022-08-11T05:31:43.127Z,5.30
2022-08-11T05:34:38.191Z,5.10
2022-08-11T05:37:25.585Z,5.30
2022-08-11T05:40:19.156Z,5.00
2022-08-11T05:43:13.127Z,5.40
2022-08-11T05:46:04.802Z,4.90
2022-08-11T05:48:54.863Z,4.70
2022-08-11T05:51:54.622Z,4.70
2022-08-11T05:54:46.171Z,4.80
2022-08-11T05:57:49.501Z,4.60
2022-08-11T06:00:14.165Z,4.50
2022-08-11T06:02:44.078Z,5.20
2022-08-11T06:05:13.820Z,4.30
2022-08-11T06:07:49.236Z,3.70
2022-08-11T06:10:29.851Z,3.20
2022-08-11T06:13:00.543Z,3.30
2022-08-11T06:15:30.005Z,2.70
2022-08-11T06:18:00.983Z,3.10
2022-08-11T06:20:36.370Z,2.90
2022-08-11T06:23:07.016Z,2.90
2022-08-11T06:25:37.066Z,3.10
2022-08-11T06:30:42.029Z,3.10
2022-08-11T06:33:15.728Z,3.10
2022-08-11T06:35:57.071Z,2.70
2022-08-11T06:38:39.418Z,2.60
2022-08-11T06:41:32.087Z,2.60
2022-08-11T06:44:17.244Z,3.10
2022-08-11T06:46:48.481Z,2.90
2022-08-11T06:49:37.991Z,2.70
2022-08-11T06:52:12.777Z,2.70
2022-08-11T06:55:05.661Z,2.80
2022-08-11T06:57:55.354Z,2.80
2022-08-11T07:00:30.581Z,2.30
2022-08-11T07:03:11.225Z,2.70
2022-08-11T07:05:45.700Z,2.60
2022-08-11T07:09:04.311Z,2.90
2022-08-11T07:12:12.850Z,2.70
2022-08-11T07:15:08.672Z,2.50
2022-08-11T07:17:43.693Z,2.70
2022-08-11T07:20:47.137Z,2.70
2022-08-11T07:23:35.437Z,2.40
2022-08-11T07:26:23.273Z,2.70
2022-08-11T07:28:58.061Z,2.90
2022-08-11T07:31:35.409Z,2.80
2022-08-11T07:34:16.044Z,3.00
2022-08-11T07:36:51.535Z,2.80
2022-08-11T07:39:24.530Z,2.80
2022-08-11T07:41:57.026Z,2.60
2022-08-11T07:44:34.284Z,2.40
2022-08-11T07:47:28.423Z,2.40
2022-08-11T07:50:15.476Z,2.50
2022-08-11T07:52:46.822Z,2.20
2022-08-11T07:55:50.161Z,2.30
2022-08-11T07:58:45.126Z,2.30
2022-08-11T08:01:41.442Z,2.10
2022-08-11T08:04:30.401Z,2.10
2022-08-11T08:07:18.780Z,2.00
2022-08-11T08:10:08.501Z,2.10
2022-08-11T08:12:56.204Z,1.90
2022-08-11T08:15:44.689Z,1.80
2022-08-11T08:18:25.999Z,1.50
2022-08-11T08:21:11.249Z,1.90
2022-08-11T08:23:42.065Z,1.60
2022-08-11T08:26:28.757Z,1.90
2022-08-11T08:29:15.825Z,1.70
2022-08-11T08:31:45.803Z,1.40
2022-08-11T08:34:15.369Z,1.70
2022-08-11T08:36:45.905Z,1.40
2022-08-11T08:39:16.098Z,1.50
2022-08-11T08:41:46.934Z,1.40
2022-08-11T08:47:08.492Z,1.60
2022-08-11T08:49:41.367Z,1.10
2022-08-11T08:52:21.141Z,1.20
2022-08-11T08:55:04.097Z,1.20
2022-08-11T08:57:39.484Z,1.40
2022-08-11T09:00:15.959Z,1.20
2022-08-11T09:02:48.920Z,1.40
2022-08-11T09:05:19.158Z,1.40
2022-08-11T09:07:54.416Z,1.30
2022-08-11T09:10:24.277Z,1.20
2022-08-11T09:12:54.730Z,1.60
2022-08-11T09:15:25.504Z,1.30
2022-08-11T09:18:03.028Z,1.50
2022-08-11T09:20:33.929Z,1.20
2022-08-11T09:29:03.957Z,1.20
2022-08-11T09:31:39.476Z,1.30
2022-08-11T09:34:10.222Z,1.10
2022-08-11T09:37:00.051Z,1.30
2022-08-11T09:39:47.452Z,1.00
2022-08-11T09:42:23.351Z,1.00
2022-08-11T09:44:53.838Z,1.10
2022-08-11T09:47:26.000Z,1.20
2022-08-11T09:49:59.585Z,1.60
2022-08-11T09:52:30.550Z,1.10
2022-08-11T09:55:00.460Z,1.10
2022-08-11T09:57:48.409Z,1.50
2022-08-11T10:00:21.076Z,1.40
2022-08-11T10:02:53.942Z,1.30
2022-08-11T10:05:42.841Z,1.70
2022-08-11T10:08:13.989Z,1.70
2022-08-11T10:10:43.757Z,1.70
2022-08-11T10:13:43.949Z,1.60
2022-08-11T10:16:15.099Z,1.40
2022-08-11T10:18:53.691Z,1.50
2022-08-11T10:21:30.199Z,1.50
2022-08-11T10:24:19.011Z,1.20
2022-08-11T10:26:53.963Z,1.10
2022-08-11T10:29:44.572Z,1.10
2022-08-11T10:32:57.471Z,1.20
2022-08-11T10:35:30.367Z,1.30
2022-08-11T10:38:15.847Z,1.50
2022-08-11T10:41:09.411Z,1.10
2022-08-11T10:44:01.220Z,1.30
2022-08-11T10:49:16.122Z,1.50
2022-08-11T10:52:03.519Z,1.00
2022-08-11T10:54:53.096Z,1.10
2022-08-11T10:57:40.794Z,1.00
2022-08-11T11:00:14.516Z,1.30
2022-08-11T11:03:23.412Z,1.10
2022-08-11T11:06:12.566Z,1.10
2022-08-11T11:08:49.675Z,1.00
2022-08-11T11:11:43.890Z,1.40
2022-08-11T11:14:46.814Z,1.00
2022-08-11T11:17:45.275Z,0.90
2022-08-11T11:20:36.101Z,1.70
2022-08-11T11:23:13.852Z,1.30
2022-08-11T11:26:09.936Z,1.20
2022-08-11T11:29:07.945Z,1.20
2022-08-11T11:31:50.982Z,1.10
2022-08-11T11:34:52.754Z,1.10
2022-08-11T11:37:23.568Z,1.20
2022-08-11T11:39:54.165Z,0.90
2022-08-11T11:42:23.360Z,1.30
2022-08-11T11:44:55.862Z,1.20
2022-08-11T11:47:26.542Z,1.00
2022-08-11T11:49:56.023Z,0.80
2022-08-11T11:52:25.905Z,0.90
2022-08-11T11:54:57.640Z,1.10
2022-08-11T11:57:58.599Z,1.20
2022-08-11T12:03:18.040Z,0.90
2022-08-11T12:05:48.210Z,0.90
2022-08-11T12:08:18.063Z,0.90
2022-08-11T12:11:10.703Z,1.10
2022-08-11T12:13:40.279Z,1.00
2022-08-11T12:16:34.410Z,0.80
2022-08-11T12:19:02.165Z,1.30
2022-08-11T12:21:31.668Z,1.00
2022-08-11T12:24:31.733Z,1.20
2022-08-11T12:27:30.278Z,1.10
2022-08-11T12:30:03.096Z,0.90
2022-08-11T12:32:34.893Z,0.90
2022-08-11T12:35:05.241Z,0.70
2022-08-11T12:37:37.627Z,0.80
2022-08-11T12:40:43.782Z,0.80
2022-08-11T12:43:40.138Z,0.80
2022-08-11T12:46:12.249Z,0.90
2022-08-11T12:49:04.273Z,0.80
2022-08-11T12:52:11.213Z,1.30
2022-08-11T12:54:51.202Z,0.80
2022-08-11T12:57:43.715Z,0.80
2022-08-11T13:00:32.484Z,1.00
2022-08-11T13:03:20.558Z,0.60
2022-08-11T13:05:52.007Z,1.10
2022-08-11T13:08:24.331Z,1.30
2022-08-11T13:11:12.440Z,1.00
2022-08-11T13:13:53.853Z,1.00
2022-08-11T13:16:28.280Z,1.10
2022-08-11T13:19:00.367Z,1.80
2022-08-11T13:21:30.501Z,0.90
2022-08-11T13:24:03.313Z,1.10
2022-08-11T13:26:43.612Z,1.40
2022-08-11T13:29:21.989Z,1.40
2022-08-11T13:31:52.476Z,1.20
2022-08-11T13:34:25.705Z,1.10
2022-08-11T13:36:56.856Z,1.20
2022-08-11T13:39:27.169Z,1.20
2022-08-11T13:41:58.765Z,1.40
2022-08-11T13:44:31.417Z,1.20
2022-08-11T13:47:03.460Z,1.10
2022-08-11T13:49:34.680Z,1.50
2022-08-11T13:52:06.004Z,1.30
2022-08-11T13:54:38.575Z,1.50
2022-08-11T13:57:13.862Z,1.30
2022-08-11T14:00:09.481Z,1.20
2022-08-11T14:02:45.023Z,1.30
2022-08-11T14:05:16.031Z,1.20
2022-08-11T14:07:49.959Z,1.80
2022-08-11T14:10:21.450Z,1.40
2022-08-11T14:13:17.051Z,1.10
2022-08-11T14:15:48.457Z,1.30
2022-08-11T14:18:21.667Z,1.20
2022-08-11T14:21:12.353Z,1.10
2022-08-11T14:23:42.802Z,1.40
2022-08-11T14:26:26.399Z,1.30
2022-08-11T14:28:58.621Z,1.00
2022-08-11T14:31:29.567Z,1.00
2022-08-11T14:34:02.346Z,1.20
2022-08-11T14:36:34.383Z,1.10
2022-08-11T14:39:06.968Z,1.30
2022-08-11T14:42:11.754Z,1.50
2022-08-11T14:45:03.015Z,1.20
2022-08-11T14:47:36.319Z,1.40
2022-08-11T14:50:12.111Z,1.40
2022-08-11T14:52:50.101Z,1.20
2022-08-11T14:55:53.074Z,1.10
2022-08-11T14:59:19.757Z,1.10
2022-08-11T15:02:10.724Z,1.20
2022-08-11T15:04:40.168Z,1.00
2022-08-11T15:07:16.839Z,1.10
2022-08-11T15:10:11.894Z,1.20
2022-08-11T15:12:36.857Z,1.20
2022-08-11T15:15:28.939Z,1.40
2022-08-11T15:18:00.317Z,1.50
2022-08-11T15:20:59.623Z,1.10
2022-08-11T15:23:46.775Z,0.90
2022-08-11T15:26:19.295Z,1.20
2022-08-11T15:29:08.898Z,6.40
2022-08-11T15:31:56.759Z,1.10
2022-08-11T15:34:47.091Z,1.80
2022-08-11T15:37:30.271Z,1.20
2022-08-11T15:40:31.272Z,0.80
2022-08-11T15:43:25.836Z,1.20
2022-08-11T15:46:02.263Z,1.10
2022-08-11T15:48:43.198Z,1.60
2022-08-11T15:51:16.457Z,0.80
2022-08-11T15:53:56.869Z,1.10
2022-08-11T15:56:31.005Z,1.00
2022-08-11T15:59:41.470Z,1.10
2022-08-11T16:02:32.133Z,1.20
2022-08-11T16:05:06.821Z,1.00
2022-08-11T16:07:40.995Z,1.20
2022-08-11T16:10:19.350Z,1.10
2022-08-11T17:24:53.234Z,1.60
2022-08-11T17:27:27.684Z,2.00
2022-08-11T17:30:03.306Z,2.00
2022-08-11T17:32:55.915Z,1.90
2022-08-11T17:35:34.540Z,1.70
2022-08-11T17:38:12.969Z,2.00
2022-08-11T17:41:03.021Z,2.20
2022-08-11T17:43:53.842Z,1.80
2022-08-11T17:46:46.718Z,1.90
2022-08-11T17:49:22.001Z,2.00
2022-08-11T17:52:13.365Z,2.00
2022-08-11T17:55:05.978Z,1.90
2022-08-11T17:57:59.637Z,2.20
2022-08-11T18:00:35.622Z,2.10
2022-08-11T18:03:27.281Z,2.00
2022-08-11T18:06:04.923Z,1.70
2022-08-11T18:09:00.188Z,1.80
2022-08-11T18:12:06.634Z,1.80
2022-08-11T18:15:03.683Z,1.70
2022-08-11T18:17:55.578Z,2.00
2022-08-11T18:20:47.778Z,2.40
2022-08-11T18:23:47.110Z,1.90
2022-08-11T18:26:42.654Z,1.50
2022-08-11T18:29:42.020Z,2.20
2022-08-11T18:32:49.779Z,1.70
2022-08-11T18:35:40.922Z,1.80
2022-08-11T18:38:35.018Z,1.80
2022-08-11T18:41:28.926Z,1.90
2022-08-11T18:44:23.070Z,1.90
2022-08-11T18:47:15.372Z,2.00
2022-08-11T18:50:09.655Z,1.70
2022-08-11T18:53:07.292Z,2.20
2022-08-11T18:55:58.888Z,2.00
2022-08-11T18:58:52.562Z,2.10
2022-08-11T19:01:46.072Z,2.30
2022-08-11T19:04:38.679Z,2.20
2022-08-11T19:10:20.450Z,2.90
2022-08-11T19:13:12.038Z,2.80
2022-08-11T19:16:05.546Z,2.40
2022-08-11T19:19:00.110Z,2.70
2022-08-11T19:21:51.396Z,2.50
2022-08-11T19:24:44.210Z,2.40
2022-08-11T19:27:35.704Z,2.30
2022-08-11T19:30:28.097Z,2.70
2022-08-11T19:36:29.652Z,2.50
2022-08-11T19:39:20.749Z,2.10
2022-08-11T19:42:11.340Z,2.00
2022-08-11T19:45:01.963Z,2.20
2022-08-11T19:48:14.081Z,2.00
2022-08-11T19:51:03.765Z,2.30
2022-08-11T19:53:55.912Z,2.00
2022-08-11T19:56:46.439Z,2.20
2022-08-11T19:59:37.352Z,2.30
2022-08-11T20:02:27.792Z,2.70
2022-08-11T20:05:17.794Z,2.30
2022-08-11T20:08:12.178Z,2.40
2022-08-11T20:11:04.131Z,2.80
2022-08-11T20:13:59.694Z,2.50
2022-08-11T20:16:51.020Z,2.60
2022-08-11T20:19:56.630Z,3.60
2022-08-11T20:22:49.399Z,2.80
2022-08-11T20:25:41.246Z,2.90
2022-08-11T20:28:32.656Z,2.60
2022-08-11T20:31:26.146Z,2.70
2022-08-11T20:34:16.275Z,2.70
2022-08-11T20:37:09.363Z,2.60
2022-08-11T20:40:01.468Z,2.90
2022-08-11T20:42:53.519Z,2.70
2022-08-11T20:48:46.156Z,2.20
2022-08-11T20:54:48.995Z,3.40
2022-08-11T20:58:03.802Z,2.90
2022-08-11T21:00:50.589Z,2.70
2022-08-11T21:03:45.266Z,3.60
2022-08-11T21:06:47.538Z,3.30
2022-08-11T21:09:58.032Z,3.10
2022-08-11T21:12:50.780Z,3.30
2022-08-11T21:16:03.063Z,3.30
2022-08-11T21:18:53.619Z,3.50
2022-08-11T21:21:45.556Z,3.60
2022-08-11T21:24:42.920Z,3.80
2022-08-11T21:27:39.643Z,4.10
2022-08-11T21:30:31.019Z,3.60
2022-08-11T21:33:22.310Z,3.50
2022-08-11T21:36:12.595Z,4.10
2022-08-11T21:39:03.540Z,3.50
2022-08-11T21:41:53.677Z,4.60
2022-08-11T21:44:45.427Z,3.70
2022-08-11T21:47:42.841Z,4.10
2022-08-11T21:50:34.168Z,4.50
2022-08-11T21:53:25.139Z,4.20
2022-08-11T21:56:15.750Z,3.80
2022-08-11T21:59:09.257Z,3.30
2022-08-11T22:01:59.589Z,3.30
2022-08-11T22:04:52.253Z,2.70
2022-08-11T22:07:42.612Z,3.10
2022-08-11T22:10:41.898Z,2.60
2022-08-11T22:13:33.243Z,2.40
2022-08-11T22:16:25.551Z,2.20
2022-08-11T22:19:18.175Z,2.10
2022-08-11T22:22:09.304Z,2.10
2022-08-11T22:25:02.248Z,1.90
2022-08-11T22:28:07.461Z,1.80
2022-08-11T22:30:57.259Z,2.10
2022-08-11T22:34:02.088Z,1.80
2022-08-11T22:36:56.950Z,1.30
2022-08-11T22:40:01.570Z,1.70
2022-08-11T22:42:53.406Z,2.30
2022-08-11T22:45:43.456Z,1.90
2022-08-11T22:48:34.701Z,1.70
2022-08-11T22:51:25.445Z,2.10
2022-08-11T22:54:16.239Z,2.30
2022-08-11T22:57:09.068Z,2.40
2022-08-11T22:59:59.612Z,3.00
2022-08-11T23:02:50.794Z,2.80
2022-08-11T23:05:43.102Z,2.40
2022-08-11T23:11:21.999Z,3.40
2022-08-11T23:14:12.573Z,2.50
2022-08-11T23:17:02.295Z,2.20
2022-08-11T23:20:03.765Z,2.10
2022-08-11T23:23:03.269Z,2.10
2022-08-11T23:25:57.905Z,2.50
2022-08-11T23:28:50.994Z,2.40
2022-08-11T23:31:50.692Z,2.80
2022-08-11T23:35:04.043Z,2.60
2022-08-11T23:37:54.332Z,2.40
2022-08-11T23:40:44.356Z,2.50
2022-08-11T23:43:41.269Z,2.90
2022-08-11T23:46:31.253Z,3.10
2022-08-11T23:49:22.157Z,3.00
2022-08-11T23:52:13.481Z,2.30
2022-08-11T23:55:04.593Z,2.70
2022-08-11T23:57:55.131Z,4.40
